Time;durP1;ratioP1;P1;durP2;ratioP2;P2;SDS_P1;SDS_P2;PMS_P1;PMS_P2;Temp;Humidity;BMP_temperature;BMP_pressure;BME280_temperature;BME280_humidity;BME280_pressure;Samples;Min_cycle;Max_cycle;Signal;HPM_P1;HPM_P2
2022/04/10 04:02:43;;;;;;;7.10;5.00;;;3.00;99.90;;;-143.14;100.00;56521.75;4935912;29;20542;-77
2022/04/10 04:05:10;;;;;;;6.07;4.70;;;3.00;99.90;;;-143.14;100.00;56521.75;4937755;29;20589;-78
2022/04/10 04:07:38;;;;;;;7.83;5.53;;;3.00;99.90;;;-143.14;100.00;56521.75;4937455;29;20454;-77
2022/04/10 04:10:07;;;;;;;7.80;5.03;;;3.00;99.90;;;-143.14;100.00;56521.75;4937640;29;21038;-77
2022/04/10 04:12:36;;;;;;;9.30;5.63;;;3.00;99.90;;;-143.14;100.00;56521.75;4956832;29;20564;-78
2022/04/10 04:15:03;;;;;;;4.83;4.30;;;3.00;99.90;;;-143.14;100.00;56521.75;4957735;28;20552;-78
2022/04/10 04:17:30;;;;;;;5.93;4.53;;;2.90;99.90;;;-143.14;100.00;56521.75;4958916;28;20457;-79
2022/04/10 04:19:58;;;;;;;8.47;5.53;;;3.00;99.90;;;-143.14;100.00;56521.75;4958488;29;20459;-78
2022/04/10 04:22:25;;;;;;;6.70;4.90;;;3.00;99.90;;;-143.14;100.00;56521.75;4957152;28;20473;-78
2022/04/10 04:24:53;;;;;;;6.10;4.90;;;3.00;99.90;;;-143.14;100.00;56521.75;4957913;29;20531;-78
2022/04/10 04:27:20;;;;;;;4.97;4.53;;;3.00;99.90;;;-143.14;100.00;56521.75;4958152;28;20457;-78
2022/04/10 04:29:47;;;;;;;10.63;4.60;;;3.00;99.90;;;-143.14;100.00;56521.75;4959585;29;20488;-78
2022/04/10 04:32:14;;;;;;;4.77;4.30;;;2.90;99.90;;;-143.14;100.00;56521.75;4958778;28;20485;-78
2022/04/10 04:34:41;;;;;;;6.80;5.07;;;2.90;99.90;;;-143.14;100.00;56521.75;4959482;29;20485;-78
2022/04/10 04:37:09;;;;;;;9.03;5.03;;;2.90;99.90;;;-143.14;100.00;56521.75;4960289;29;20461;-78
2022/04/10 04:39:36;;;;;;;6.30;5.03;;;2.80;99.90;;;-143.14;100.00;56521.75;4976203;28;20500;-78
2022/04/10 04:42:04;;;;;;;7.73;5.17;;;2.90;99.90;;;-143.14;100.00;56521.75;4979827;28;20457;-78
2022/04/10 04:44:31;;;;;;;8.73;5.23;;;2.80;99.90;;;-143.14;100.00;56521.75;4979902;28;20553;-77
2022/04/10 04:46:59;;;;;;;7.00;4.67;;;2.90;99.90;;;-143.14;100.00;56521.75;4980181;29;20465;-78
2022/04/10 04:49:26;;;;;;;6.83;5.07;;;2.90;99.90;;;-143.14;100.00;56521.75;4980472;28;20460;-78
2022/04/10 04:51:54;;;;;;;8.80;4.70;;;2.80;99.90;;;-143.14;100.00;56521.75;4968601;28;20793;-78
2022/04/10 04:54:23;;;;;;;4.43;4.03;;;2.80;99.90;;;-143.14;100.00;56521.75;4958663;29;20463;-78
2022/04/10 04:56:50;;;;;;;7.00;4.87;;;2.80;99.90;;;-143.14;100.00;56521.75;4956993;29;20974;-78
2022/04/10 04:59:17;;;;;;;6.73;4.70;;;2.80;99.90;;;-143.14;100.00;56521.75;4957986;29;20489;-78
2022/04/10 05:01:45;;;;;;;6.77;5.40;;;2.80;99.90;;;-143.14;100.00;56521.75;4958784;28;20481;-76
2022/04/10 05:04:12;;;;;;;5.30;4.80;;;2.80;99.90;;;-143.14;100.00;56521.75;4955794;28;20497;-76
2022/04/10 05:06:40;;;;;;;8.83;4.80;;;2.80;99.90;;;-143.14;100.00;56521.75;4955876;29;20469;-76
2022/04/10 05:09:07;;;;;;;5.57;4.77;;;2.80;99.90;;;-143.14;100.00;56521.75;4955736;29;20564;-76
2022/04/10 05:11:35;;;;;;;7.60;5.23;;;2.80;99.90;;;-143.14;100.00;56521.75;4955546;28;20468;-76
2022/04/10 05:14:04;;;;;;;8.63;5.37;;;2.90;99.90;;;-143.14;100.00;56521.75;4955847;29;20480;-76
2022/04/10 05:16:31;;;;;;;7.80;5.30;;;2.80;99.90;;;-143.14;100.00;56521.75;4955064;28;20461;-76
2022/04/10 05:18:58;;;;;;;9.07;5.40;;;2.80;99.90;;;-143.14;100.00;56521.75;4955465;29;20493;-76
2022/04/10 05:21:25;;;;;;;6.87;5.07;;;2.80;99.90;;;-143.14;100.00;56521.75;4955619;28;20478;-76
2022/04/10 05:23:52;;;;;;;6.33;4.63;;;2.80;99.90;;;-143.14;100.00;56521.75;4955312;28;20460;-77
2022/04/10 05:26:19;;;;;;;5.77;4.60;;;2.80;99.90;;;-143.14;100.00;56521.75;4955031;28;20822;-76
2022/04/10 05:28:47;;;;;;;8.00;4.80;;;2.80;99.90;;;-143.14;100.00;56521.75;4955907;28;20561;-76
2022/04/10 05:31:14;;;;;;;6.13;4.40;;;2.90;99.90;;;-143.14;100.00;56521.75;4955294;28;20491;-76
2022/04/10 05:33:42;;;;;;;4.90;4.30;;;2.80;99.90;;;-143.14;100.00;56521.75;4955658;29;20540;-76
2022/04/10 05:36:11;;;;;;;4.90;4.30;;;2.80;99.90;;;-143.14;100.00;56521.75;4955428;29;20457;-76
2022/04/10 05:38:38;;;;;;;5.90;4.60;;;2.80;99.90;;;-143.14;100.00;56521.75;4955051;29;20465;-76
2022/04/10 05:41:05;;;;;;;6.87;4.43;;;2.90;99.90;;;-143.14;100.00;56521.75;4954891;28;20466;-76
2022/04/10 05:43:32;;;;;;;5.70;4.40;;;2.90;99.90;;;-143.14;100.00;56521.75;4954839;28;20831;-76
2022/04/10 05:46:01;;;;;;;5.10;4.33;;;2.80;99.90;;;-143.14;100.00;56521.75;4954711;29;21389;-76
2022/04/10 05:48:28;;;;;;;5.40;4.20;;;2.80;99.90;;;-143.14;100.00;56521.75;4955167;29;20456;-76
2022/04/10 05:50:55;;;;;;;5.17;3.90;;;2.80;99.90;;;-143.14;100.00;56521.75;4954860;28;20986;-76
2022/04/10 05:53:22;;;;;;;4.97;4.00;;;2.80;99.90;;;-143.14;100.00;56521.75;4954927;28;20448;-76
2022/04/10 05:55:49;;;;;;;5.70;4.10;;;2.90;99.90;;;-143.14;100.00;56521.75;4954997;28;20454;-76
2022/04/10 05:58:16;;;;;;;6.33;4.60;;;2.90;99.90;;;-143.14;100.00;56521.75;4954533;28;20458;-76
2022/04/10 06:00:43;;;;;;;4.77;4.10;;;2.90;99.90;;;-143.14;100.00;56521.75;4954881;28;20574;-76
2022/04/10 06:03:12;;;;;;;5.87;4.33;;;2.90;99.90;;;-143.14;100.00;56521.75;4954960;29;20460;-76
2022/04/10 06:05:39;;;;;;;6.33;4.70;;;2.90;99.90;;;-143.14;100.00;56521.75;4955112;28;20870;-76
2022/04/10 06:08:07;;;;;;;5.10;4.60;;;2.90;99.90;;;-143.14;100.00;56521.75;4954542;29;20540;-76
2022/04/10 06:10:34;;;;;;;8.47;5.10;;;2.90;99.90;;;-143.14;100.00;56521.75;4954591;28;20487;-76
2022/04/10 06:13:08;;;;;;;6.10;4.30;;;2.90;99.90;;;-143.14;100.00;56521.75;4954652;29;20548;-76
2022/04/10 06:15:35;;;;;;;5.07;4.07;;;3.00;99.90;;;-143.14;100.00;56521.75;4954607;29;20467;-76
2022/04/10 06:18:02;;;;;;;6.33;4.90;;;3.00;99.90;;;-143.14;100.00;56521.75;4954634;29;20457;-76
2022/04/10 06:20:30;;;;;;;12.23;8.17;;;3.00;99.90;;;-143.14;100.00;56521.75;4954658;28;20902;-75
2022/04/10 06:22:57;;;;;;;24.03;12.77;;;3.00;99.90;;;-143.14;100.00;56521.75;4954626;28;20469;-75
2022/04/10 06:25:24;;;;;;;20.37;11.43;;;3.00;99.90;;;-143.14;100.00;56521.75;4954101;29;20588;-77
2022/04/10 06:27:51;;;;;;;26.07;14.80;;;3.00;99.90;;;-143.14;100.00;56521.75;4953985;29;20969;-76
2022/04/10 06:30:21;;;;;;;20.90;11.53;;;3.10;99.90;;;-143.14;100.00;56521.75;4954212;28;20463;-76
2022/04/10 06:32:48;;;;;;;9.10;6.70;;;3.10;99.90;;;-143.14;100.00;56521.75;4953967;29;20859;-76
2022/04/10 06:35:15;;;;;;;9.10;6.60;;;3.20;99.90;;;-143.14;100.00;56521.75;4954007;29;20544;-76
2022/04/10 06:37:44;;;;;;;10.80;7.33;;;3.20;99.90;;;-143.14;100.00;56521.75;4953625;29;20453;-76
2022/04/10 06:40:11;;;;;;;8.70;6.67;;;3.20;99.90;;;-143.14;100.00;56521.75;4953766;28;20465;-76
2022/04/10 06:42:40;;;;;;;9.60;6.93;;;3.30;99.90;;;-143.14;100.00;56521.75;4953805;29;20465;-76
2022/04/10 06:45:09;;;;;;;11.53;7.20;;;3.40;99.90;;;-143.14;100.00;56521.75;4954104;29;20497;-76
2022/04/10 06:47:36;;;;;;;12.20;7.63;;;3.40;99.90;;;-143.14;100.00;56521.75;4954316;29;20564;-76
2022/04/10 06:50:03;;;;;;;6.60;5.90;;;3.50;99.90;;;-143.14;100.00;56521.75;4954187;29;20457;-76
2022/04/10 06:52:30;;;;;;;8.80;6.43;;;3.60;99.90;;;-143.14;100.00;56521.75;4953824;28;20516;-76
2022/04/10 06:54:59;;;;;;;9.10;6.50;;;3.60;99.90;;;-143.14;100.00;56521.75;4953885;29;21021;-77
2022/04/10 06:57:26;;;;;;;12.90;7.30;;;3.70;99.90;;;-143.14;100.00;56521.75;4953995;29;20467;-77
2022/04/10 06:59:53;;;;;;;10.10;6.70;;;3.80;99.90;;;-143.14;100.00;56521.75;4953817;29;20453;-77
2022/04/10 07:02:20;;;;;;;6.80;6.10;;;3.90;99.90;;;-143.14;100.00;56521.75;4953249;28;20566;-76
2022/04/10 07:04:47;;;;;;;8.30;6.80;;;3.90;99.90;;;-143.14;100.00;56521.75;4953769;28;20617;-76
2022/04/10 07:07:14;;;;;;;11.77;6.50;;;4.00;99.90;;;-143.14;100.00;56521.75;4953246;29;20955;-77
2022/04/10 07:09:41;;;;;;;8.40;6.63;;;4.00;99.90;;;-143.14;100.00;56521.75;4953833;28;20497;-77
2022/04/10 07:12:11;;;;;;;8.03;6.73;;;4.10;99.90;;;-143.14;100.00;56521.75;4953895;28;20489;-77
2022/04/10 07:14:38;;;;;;;8.20;6.07;;;4.20;99.90;;;-143.14;100.00;56521.75;4953988;29;20457;-77
2022/04/10 07:17:05;;;;;;;12.23;7.47;;;4.20;99.90;;;-143.14;100.00;56521.75;4953565;29;20458;-77
2022/04/10 07:19:33;;;;;;;9.77;7.57;;;4.20;99.90;;;-143.14;100.00;56521.75;4953170;29;20466;-77
2022/04/10 07:24:44;;;;;;;10.97;7.53;;;4.40;99.90;;;-143.14;100.00;56521.75;4953692;29;20572;-77
2022/04/10 07:27:13;;;;;;;7.50;6.47;;;4.40;99.90;;;-143.14;100.00;56521.75;4953116;28;20549;-77
2022/04/10 07:29:40;;;;;;;9.37;5.73;;;4.40;99.90;;;-143.14;100.00;56521.75;4953683;29;20552;-77
2022/04/10 07:32:08;;;;;;;7.83;7.10;;;4.60;99.90;;;-143.14;100.00;56521.75;4953469;28;20487;-77
2022/04/10 07:34:35;;;;;;;7.73;6.53;;;4.70;99.90;;;-143.14;100.00;56521.75;4952969;29;21084;-77
2022/04/10 07:37:03;;;;;;;9.27;6.50;;;4.60;99.90;;;-143.14;100.00;56521.75;4953196;29;20464;-77
2022/04/10 07:39:30;;;;;;;11.23;6.43;;;4.60;99.90;;;-143.14;100.00;56521.75;4953239;29;20567;-77
2022/04/10 07:41:57;;;;;;;7.57;6.10;;;4.70;99.90;;;-143.14;100.00;56521.75;4953038;28;20573;-77
2022/04/10 07:44:26;;;;;;;8.63;6.37;;;4.90;99.90;;;-143.14;100.00;56521.75;4952991;28;20817;-77
2022/04/10 07:49:38;;;;;;;7.53;6.40;;;5.00;99.90;;;-143.14;100.00;56521.75;4953255;29;20804;-77
2022/04/10 07:52:05;;;;;;;9.10;6.30;;;5.10;99.90;;;-143.14;100.00;56521.75;4953048;28;20864;-77
2022/04/10 07:54:33;;;;;;;11.03;7.40;;;5.20;99.90;;;-143.14;100.00;56521.75;4953197;29;20457;-77
2022/04/10 07:57:00;;;;;;;7.90;6.83;;;5.20;99.90;;;-143.14;100.00;56521.75;4952669;29;20489;-77
2022/04/10 07:59:28;;;;;;;6.87;5.97;;;5.40;99.90;;;-143.14;100.00;56521.75;4953403;29;20842;-77
2022/04/10 08:01:55;;;;;;;12.73;6.90;;;5.50;99.90;;;-143.14;100.00;56521.75;4952897;28;20914;-77
2022/04/10 08:04:22;;;;;;;10.17;5.57;;;5.60;99.90;;;-143.14;100.00;56521.75;4953196;28;20438;-77
2022/04/10 08:06:49;;;;;;;8.43;5.40;;;5.70;99.90;;;-143.14;100.00;56521.75;4953099;29;20497;-77
2022/04/10 08:09:16;;;;;;;12.33;5.47;;;5.70;99.90;;;-143.14;100.00;56521.75;4953061;29;20496;-77
2022/04/10 08:11:43;;;;;;;8.80;5.20;;;5.70;99.90;;;-143.14;100.00;56521.75;4953321;28;20824;-77
2022/04/10 08:14:11;;;;;;;6.70;5.20;;;5.80;99.90;;;-143.14;100.00;56521.75;4954657;28;20464;-77
2022/04/10 08:16:39;;;;;;;6.30;5.30;;;5.90;99.90;;;-143.14;100.00;56521.75;4956508;29;20496;-77
2022/04/10 08:19:07;;;;;;;6.10;5.03;;;6.00;99.90;;;-143.14;100.00;56521.75;4956346;29;20957;-77
2022/04/10 08:21:34;;;;;;;8.43;5.70;;;6.10;99.90;;;-143.14;100.00;56521.75;4956209;28;20508;-77
2022/04/10 08:24:01;;;;;;;10.70;4.93;;;6.20;99.90;;;-143.14;100.00;56521.75;4956224;29;20454;-77
2022/04/10 08:26:29;;;;;;;7.63;5.53;;;6.20;99.90;;;-143.14;100.00;56521.75;4955868;29;20497;-77
2022/04/10 08:28:56;;;;;;;6.47;4.43;;;6.30;99.90;;;-143.14;100.00;56521.75;4956460;28;20818;-77
2022/04/10 08:31:23;;;;;;;9.53;5.00;;;6.40;99.90;;;-143.14;100.00;56521.75;4956300;28;20462;-77
2022/04/10 08:33:52;;;;;;;6.00;5.03;;;6.40;99.90;;;-143.14;100.00;56521.75;4956435;28;20456;-77
2022/04/10 08:36:20;;;;;;;8.20;4.20;;;6.60;99.90;;;-143.14;100.00;56521.75;4956254;28;20457;-77
2022/04/10 08:38:47;;;;;;;4.83;4.23;;;6.70;99.90;;;-143.14;100.00;56521.75;4955904;28;20481;-77
2022/04/10 08:41:14;;;;;;;8.23;5.23;;;6.90;99.90;;;-143.14;100.00;56521.75;4955871;28;20933;-77
2022/04/10 08:43:43;;;;;;;9.80;4.57;;;7.00;99.90;;;-143.14;100.00;56521.75;4956248;29;20457;-77
2022/04/10 08:46:13;;;;;;;8.37;4.60;;;7.00;99.90;;;-143.14;100.00;56521.75;4955883;29;20592;-77
2022/04/10 08:48:41;;;;;;;5.13;4.40;;;7.10;99.90;;;-143.14;100.00;56521.75;4955821;29;20446;-77
2022/04/10 08:51:10;;;;;;;6.43;4.50;;;7.20;99.90;;;-143.14;100.00;56521.75;4955527;28;20505;-77
2022/04/10 08:53:39;;;;;;;7.83;4.27;;;7.20;99.90;;;-143.14;100.00;56521.75;4955877;28;20445;-77
2022/04/10 08:56:09;;;;;;;7.30;4.17;;;7.20;99.90;;;-143.14;100.00;56521.75;4955770;28;20959;-77
2022/04/10 08:58:36;;;;;;;9.80;5.20;;;7.20;99.90;;;-143.14;100.00;56521.75;4955452;29;20446;-77
2022/04/10 09:01:03;;;;;;;6.60;4.50;;;7.10;99.90;;;-143.14;100.00;56521.75;4955546;28;20516;-77
2022/04/10 09:03:31;;;;;;;5.20;4.10;;;7.10;99.90;;;-143.14;100.00;56521.75;4955571;28;20528;-77
2022/04/10 09:06:03;;;;;;;7.13;4.47;;;7.00;99.90;;;-143.14;100.00;56521.75;4955443;28;20493;-77
2022/04/10 09:08:32;;;;;;;7.50;4.00;;;7.00;99.90;;;-143.14;100.00;56521.75;4955237;29;20532;-77
2022/04/10 09:11:03;;;;;;;6.80;4.80;;;7.10;99.90;;;-143.14;100.00;56521.75;4955554;28;20496;-77
2022/04/10 09:13:35;;;;;;;7.37;4.07;;;7.30;99.90;;;-143.14;100.00;56521.75;4955781;29;20434;-77
2022/04/10 09:16:13;;;;;;;6.40;3.90;;;7.30;99.90;;;-143.14;100.00;56521.75;4955603;28;20516;-77
2022/04/10 09:18:56;;;;;;;5.20;4.30;;;7.40;99.90;;;-143.14;100.00;56521.75;4955447;29;20453;-77
2022/04/10 09:21:29;;;;;;;6.30;4.07;;;7.50;99.90;;;-143.14;100.00;56521.75;4955568;28;20489;-77
2022/04/10 09:24:04;;;;;;;4.50;4.00;;;7.60;99.90;;;-143.14;100.00;56521.75;4955366;28;20516;-77
2022/04/10 09:26:47;;;;;;;8.03;3.80;;;7.80;99.90;;;-143.14;100.00;56521.75;4954881;29;20583;-77
2022/04/10 09:29:15;;;;;;;6.07;3.70;;;7.90;99.90;;;-143.14;100.00;56521.75;4957209;29;20534;-77
2022/04/10 09:31:43;;;;;;;6.90;3.63;;;7.90;99.90;;;-143.14;100.00;56521.75;4956629;28;20870;-76
2022/04/10 09:34:14;;;;;;;9.23;4.50;;;7.90;99.90;;;-143.14;100.00;56521.75;4955658;28;20462;-77
2022/04/10 09:36:43;;;;;;;8.40;4.37;;;8.00;99.90;;;-143.14;100.00;56521.75;4955369;29;20462;-77
2022/04/10 09:39:15;;;;;;;6.77;3.80;;;8.10;99.90;;;-143.14;100.00;56521.75;4955637;28;20450;-77
2022/04/10 09:41:45;;;;;;;8.70;4.33;;;8.10;99.90;;;-143.14;100.00;56521.75;4955297;28;20501;-77
2022/04/10 09:44:20;;;;;;;5.13;4.10;;;8.10;99.90;;;-143.14;100.00;56521.75;4955456;29;20453;-77
2022/04/10 09:46:59;;;;;;;6.30;4.10;;;8.20;99.90;;;-143.14;100.00;56521.75;4955277;29;20505;-77
2022/04/10 09:49:33;;;;;;;4.87;3.90;;;8.20;99.90;;;-143.14;100.00;56521.75;4955367;29;20472;-77
2022/04/10 09:52:07;;;;;;;6.67;4.20;;;8.30;99.90;;;-143.14;100.00;56521.75;4955215;28;20986;-77
2022/04/10 09:54:41;;;;;;;8.77;4.10;;;8.40;99.90;;;-143.14;100.00;56521.75;4955313;29;20868;-77
2022/04/10 09:57:12;;;;;;;5.93;4.17;;;8.40;99.90;;;-143.14;100.00;56521.75;4954851;29;20468;-77
2022/04/10 09:59:43;;;;;;;5.83;4.17;;;8.30;99.90;;;-143.14;100.00;56521.75;4955019;29;20422;-77
2022/04/10 10:02:12;;;;;;;4.50;4.10;;;8.20;99.90;;;-143.14;100.00;56521.75;4954387;28;20485;-77
2022/04/10 10:04:41;;;;;;;7.73;4.27;;;8.20;99.90;;;-143.14;100.00;56521.75;4954661;29;20992;-77
2022/04/10 10:07:12;;;;;;;6.80;4.20;;;8.20;99.90;;;-143.14;100.00;56521.75;4955164;29;20493;-77
2022/04/10 10:09:41;;;;;;;6.90;4.87;;;8.20;99.90;;;-143.14;100.00;56521.75;4954745;29;20474;-77
2022/04/10 10:12:10;;;;;;;11.80;5.90;;;8.20;99.90;;;-143.14;100.00;56521.75;4955534;28;20489;-77
2022/04/10 10:14:39;;;;;;;7.33;5.10;;;8.20;99.90;;;-143.14;100.00;56521.75;4956885;28;20505;-77
2022/04/10 12:31:41;;;;;;;3.30;3.00;;;9.00;99.90;;;-143.14;100.00;56521.75;4978690;28;20963;-85
2022/04/10 12:34:11;;;;;;;5.00;4.00;;;8.30;99.90;;;-143.14;100.00;56521.75;4980169;28;20465;-84
2022/04/10 12:36:47;;;;;;;5.73;4.20;;;8.20;99.90;;;-143.14;100.00;56521.75;4976619;28;20892;-86
2022/04/10 12:39:28;;;;;;;4.90;3.87;;;8.20;99.90;;;-143.14;100.00;56521.75;4977771;28;20532;-85
2022/04/10 12:42:01;;;;;;;6.23;3.50;;;8.30;99.90;;;-143.14;100.00;56521.75;4974284;28;20468;-86
2022/04/10 12:44:29;;;;;;;4.30;3.90;;;8.50;99.90;;;-143.14;100.00;56521.75;4976071;28;20452;-85
2022/04/10 12:46:57;;;;;;;4.97;3.77;;;8.70;99.90;;;-143.14;100.00;56521.75;4979956;28;20496;-85
2022/04/10 12:49:25;;;;;;;5.67;4.27;;;9.00;99.90;;;-143.14;100.00;56521.75;4975306;28;21028;-83
2022/04/10 12:51:57;;;;;;;6.03;4.00;;;8.90;99.90;;;-143.14;100.00;56521.75;4973453;28;20472;-83
2022/04/10 12:54:38;;;;;;;4.20;3.80;;;8.60;99.90;;;-143.14;100.00;56521.75;4973673;28;20453;-84
2022/04/10 12:57:07;;;;;;;5.30;4.53;;;8.40;99.90;;;-143.14;100.00;56521.75;4971571;28;20660;-84
2022/04/10 12:59:46;;;;;;;7.17;4.97;;;8.30;99.90;;;-143.14;100.00;56521.75;4971701;28;20845;-82
2022/04/10 13:02:28;;;;;;;5.83;5.00;;;8.10;99.90;;;-143.14;100.00;56521.75;4971725;28;20506;-82
2022/04/10 13:05:00;;;;;;;4.87;4.47;;;8.10;99.90;;;-143.14;100.00;56521.75;4972067;28;20544;-81
2022/04/10 13:07:29;;;;;;;5.93;4.70;;;8.10;99.90;;;-143.14;100.00;56521.75;4972675;28;21259;-81
2022/04/10 13:10:07;;;;;;;5.80;4.77;;;8.10;99.90;;;-143.14;100.00;56521.75;4972202;28;20456;-81
2022/04/10 13:12:37;;;;;;;6.80;5.30;;;8.10;99.90;;;-143.14;100.00;56521.75;4972057;28;20912;-82
2022/04/10 13:15:06;;;;;;;7.00;5.97;;;8.30;99.90;;;-143.14;100.00;56521.75;4972278;28;20445;-81
2022/04/10 13:17:37;;;;;;;9.17;5.33;;;8.50;99.90;;;-143.14;100.00;56521.75;4972122;28;20964;-81
2022/04/10 13:20:07;;;;;;;7.30;5.27;;;8.60;99.90;;;-143.14;100.00;56521.75;4973273;28;20440;-81
2022/04/10 13:22:35;;;;;;;6.03;4.40;;;8.80;99.90;;;-143.14;100.00;56521.75;4973044;28;20448;-81
2022/04/10 13:25:02;;;;;;;9.03;5.43;;;9.10;99.90;;;-143.14;100.00;56521.75;4974081;28;20453;-80
2022/04/10 13:27:30;;;;;;;9.17;5.13;;;9.30;99.90;;;-143.14;100.00;56521.75;4972199;28;20496;-81
2022/04/10 13:29:58;;;;;;;5.63;4.50;;;9.60;99.90;;;-143.14;100.00;56521.75;4973689;28;20453;-82
2022/04/10 13:32:25;;;;;;;6.53;4.63;;;9.80;99.90;;;-143.14;100.00;56521.75;4972447;28;20464;-84
2022/04/10 13:34:54;;;;;;;5.43;4.13;;;9.90;99.90;;;-143.14;100.00;56521.75;4971755;28;20975;-81
2022/04/10 13:37:22;;;;;;;8.67;4.00;;;9.90;99.90;;;-143.14;100.00;56521.75;4972813;28;20479;-80
2022/04/10 13:39:50;;;;;;;5.57;4.50;;;9.90;99.90;;;-143.14;100.00;56521.75;4972752;28;20452;-81
2022/04/10 13:42:17;;;;;;;4.83;3.90;;;9.90;99.90;;;-143.14;100.00;56521.75;4973842;28;20460;-79
2022/04/10 13:44:45;;;;;;;9.07;4.73;;;10.00;99.90;;;-143.14;100.00;56521.75;4974051;28;20547;-83
2022/04/10 13:47:12;;;;;;;3.93;3.63;;;10.20;99.90;;;-143.14;100.00;56521.75;4971311;28;21006;-81
2022/04/10 13:49:40;;;;;;;4.87;4.37;;;10.40;99.90;;;-143.14;100.00;56521.75;4972273;28;20467;-81
2022/04/10 13:52:08;;;;;;;5.43;3.97;;;10.60;99.90;;;-143.14;100.00;56521.75;4971551;28;21035;-80
2022/04/10 13:54:37;;;;;;;4.93;4.47;;;10.80;99.90;;;-143.14;100.00;56521.75;4972270;28;20448;-80
2022/04/10 13:57:04;;;;;;;7.40;4.73;;;11.00;99.90;;;;;;4971814;28;20472;-80
2022/04/10 13:59:31;;;;;;;6.63;4.10;;;11.30;99.90;;;;;;4970387;28;20464;-68
2022/04/10 14:01:58;;;;;;;5.63;3.97;;;11.50;99.90;;;106.89;100.00;56521.75;4968072;28;20579;-68
2022/04/10 14:04:26;;;;;;;6.23;3.50;;;11.70;99.90;;;-143.14;100.00;56521.75;4968227;28;20457;-68
2022/04/10 14:06:53;;;;;;;4.00;3.60;;;11.90;99.90;;;-143.14;100.00;56521.75;4964722;28;20500;-69
2022/04/10 14:09:23;;;;;;;3.83;2.97;;;12.00;99.90;;;-143.14;100.00;56521.75;4967125;28;20463;-69
2022/04/10 14:11:50;;;;;;;6.43;4.43;;;12.10;99.90;;;-143.14;100.00;56521.75;4965362;28;20543;-69
2022/04/10 14:14:17;;;;;;;5.30;3.23;;;12.30;99.90;;;-143.14;100.00;56521.75;4965567;28;20535;-70
2022/04/10 14:16:44;;;;;;;5.93;3.73;;;12.20;99.90;;;-143.14;100.00;56521.75;4966372;28;20465;-69
2022/04/10 14:19:12;;;;;;;4.83;3.60;;;12.40;99.90;;;-143.14;100.00;56521.75;4967178;28;20457;-69
2022/04/10 14:21:40;;;;;;;7.83;3.30;;;12.60;99.90;;;;;;4971622;28;20464;-84
2022/04/10 14:24:07;;;;;;;3.90;3.50;;;12.80;99.90;;;;;;4970867;28;20971;-79
2022/04/10 14:26:35;;;;;;;5.80;4.10;;;12.90;99.90;;;;;;4968673;28;20595;-81
2022/04/10 14:29:02;;;;;;;4.90;3.20;;;13.00;99.90;;;;;;4970320;28;20539;-83
2022/04/10 14:31:29;;;;;;;5.90;3.33;;;13.10;99.90;;;;;;4970004;28;20519;-79
2022/04/10 14:33:56;;;;;;;3.97;3.23;;;13.10;99.90;;;-143.14;100.00;56521.75;4969978;28;20464;-80
2022/04/10 14:36:24;;;;;;;6.63;3.07;;;12.80;99.90;;;-143.14;100.00;56521.75;4970509;28;20479;-79
2022/04/10 14:38:51;;;;;;;4.80;3.03;;;12.90;99.90;;;-143.14;100.00;56521.75;4970580;28;20583;-80
2022/04/10 14:41:19;;;;;;;4.80;3.53;;;12.90;99.90;;;-143.14;100.00;56521.75;4969729;28;20499;-82
2022/04/10 14:43:48;;;;;;;5.70;3.80;;;12.90;99.90;;;-143.14;100.00;56521.75;4971032;28;20456;-82
2022/04/10 14:46:16;;;;;;;2.83;2.60;;;13.00;99.90;;;-143.14;100.00;56521.75;4972828;28;20472;-82
2022/04/10 14:48:43;;;;;;;3.00;2.80;;;13.20;99.90;;;-143.14;100.00;56521.75;4971688;28;20479;-82
2022/04/10 14:51:10;;;;;;;4.30;3.17;;;13.10;99.90;;;-143.14;100.00;56521.75;4972197;28;20858;-82
2022/04/10 14:53:37;;;;;;;4.20;2.50;;;12.90;99.90;;;-143.14;100.00;56521.75;4973771;28;20467;-82
2022/04/10 14:56:05;;;;;;;3.33;2.57;;;13.10;99.90;;;-143.14;100.00;56521.75;4975757;28;20532;-86
2022/04/10 14:58:32;;;;;;;4.13;2.67;;;13.10;99.90;;;-143.14;100.00;56521.75;4973844;28;20567;-82
2022/04/10 15:01:01;;;;;;;3.83;2.60;;;13.20;99.90;;;-143.14;100.00;56521.75;4971958;28;20467;-82
2022/04/10 15:03:28;;;;;;;4.77;2.87;;;13.40;99.90;;;-143.14;100.00;56521.75;4972611;28;20562;-81
2022/04/10 15:05:55;;;;;;;4.70;2.50;;;13.30;99.90;;;-143.14;100.00;56521.75;4972774;28;20539;-81
2022/04/10 15:08:22;;;;;;;2.93;2.40;;;13.30;99.90;;;-143.14;100.00;56521.75;4976411;28;20504;-81
2022/04/10 15:10:49;;;;;;;5.00;3.37;;;13.30;99.90;;;-143.14;100.00;56521.75;4973614;28;20476;-79
2022/04/10 15:13:17;;;;;;;3.17;2.70;;;13.50;99.90;;;-143.14;100.00;56521.75;4975072;28;20497;-80
2022/04/10 15:15:44;;;;;;;4.27;3.00;;;13.40;99.90;;;-143.14;100.00;56521.75;4977533;28;20481;-79
2022/04/10 15:18:13;;;;;;;4.13;2.60;;;13.20;99.90;;;-143.14;100.00;56521.75;4973187;28;20461;-82
2022/04/10 15:20:40;;;;;;;5.57;2.53;;;13.00;99.90;;;-143.14;100.00;56521.75;4972233;28;20460;-80
2022/04/10 15:23:07;;;;;;;4.20;3.00;;;13.10;99.90;;;-143.14;100.00;56521.75;4974700;28;20469;-83
2022/04/10 15:25:34;;;;;;;2.93;2.50;;;13.10;99.90;;;-143.14;100.00;56521.75;4977702;28;20539;-81
2022/04/10 15:28:01;;;;;;;10.23;2.93;;;13.00;99.90;;;-143.14;100.00;56521.75;4977696;28;20595;-81
2022/04/10 15:30:28;;;;;;;5.60;2.93;;;12.70;99.90;;;-143.14;100.00;56521.75;4979086;28;20455;-80
2022/04/10 15:32:55;;;;;;;3.30;3.00;;;12.60;99.90;;;-143.14;100.00;56521.75;4976165;28;20563;-81
2022/04/10 15:35:27;;;;;;;4.63;3.40;;;12.60;99.90;;;-143.14;100.00;56521.75;4975267;28;21087;-83
2022/04/10 15:37:54;;;;;;;5.80;3.70;;;12.80;99.90;;;-143.14;100.00;56521.75;4975084;28;20447;-82
2022/04/10 15:40:22;;;;;;;5.77;3.00;;;12.80;99.90;;;-143.14;100.00;56521.75;4974906;28;20466;-82
2022/04/10 15:42:49;;;;;;;7.57;3.40;;;12.90;99.90;;;-143.14;100.00;56521.75;4975510;28;20524;-82
2022/04/10 15:45:16;;;;;;;3.80;2.93;;;12.80;99.90;;;-143.14;100.00;56521.75;4976040;28;20527;-82
2022/04/10 15:47:43;;;;;;;6.50;4.00;;;12.70;99.90;;;-143.14;100.00;56521.75;4974934;28;20541;-81
2022/04/10 15:50:12;;;;;;;6.67;3.70;;;12.60;99.90;;;-143.14;100.00;56521.75;4975981;28;20877;-82
2022/04/10 15:52:41;;;;;;;11.47;3.87;;;12.40;99.90;;;-143.14;100.00;56521.75;4975493;28;20471;-82
2022/04/10 15:55:10;;;;;;;4.57;3.60;;;12.20;99.90;;;-143.14;100.00;56521.75;4976277;28;21104;-82
2022/04/10 15:57:38;;;;;;;7.07;3.70;;;12.20;99.90;;;-143.14;100.00;56521.75;4974989;28;20457;-82
2022/04/10 16:00:09;;;;;;;7.00;3.47;;;12.20;99.90;;;-143.14;100.00;56521.75;4975856;28;20925;-83
2022/04/10 16:02:41;;;;;;;6.53;4.57;;;12.10;99.90;;;-143.14;100.00;56521.75;4975866;28;20436;-81
2022/04/10 16:05:09;;;;;;;8.37;6.70;;;12.00;99.90;;;-143.14;100.00;56521.75;4976090;28;20444;-82
2022/04/10 16:07:36;;;;;;;44.03;39.53;;;11.90;99.90;;;-143.14;100.00;56521.75;4973797;28;20507;-82
2022/04/10 16:10:07;;;;;;;30.03;27.10;;;11.80;99.90;;;-143.14;100.00;56521.75;4974183;28;20480;-81
2022/04/10 16:12:34;;;;;;;8.73;7.93;;;11.80;99.90;;;-143.14;100.00;56521.75;4974823;28;20504;-81
2022/04/10 16:15:02;;;;;;;5.30;3.80;;;11.80;99.90;;;-143.14;100.00;56521.75;4974764;28;20456;-83
2022/04/10 16:17:29;;;;;;;6.13;3.43;;;11.80;99.90;;;-143.14;100.00;56521.75;4974655;28;20459;-82
2022/04/10 16:19:56;;;;;;;3.37;3.07;;;11.70;99.90;;;-143.14;100.00;56521.75;4975468;28;20544;-82
2022/04/10 16:22:24;;;;;;;5.30;3.10;;;11.50;99.90;;;-143.14;100.00;56521.75;4973797;28;20960;-81
2022/04/10 16:24:51;;;;;;;4.10;3.30;;;11.50;99.90;;;-143.14;100.00;56521.75;4974748;28;20555;-81
2022/04/10 16:30:10;;;;;;;3.80;3.10;;;11.30;99.90;;;-143.14;100.00;56521.75;4975778;28;20481;-81
2022/04/10 16:32:39;;;;;;;6.27;3.03;;;11.20;99.90;;;-143.14;100.00;56521.75;4974247;28;20612;-83
2022/04/10 16:35:08;;;;;;;3.80;2.80;;;11.20;99.90;;;-143.14;100.00;56521.75;4974680;28;20465;-81
2022/04/10 16:37:36;;;;;;;6.77;3.57;;;11.20;99.90;;;-143.14;100.00;56521.75;4975527;28;20471;-80